Latest Weather Observations for Cape Willoughby

IDS60801

Issued at 8:31 am CST Monday 20 April 2015 (issued every 30 minutes, with the page automatically refreshed every 10 minutes)

About weather observations | Map of weather stations | Latest weather observations for SA | Other Formats
Station Details ID: 022803 Name: CAPE WILLOUGHBY Lat: -35.84 Lon: 138.13 Height: 55.0 m
Data from the previous 72 hours. | See also: Recent months at Cape Willoughby
Date/Time
CST
Temp
°C
App
Temp
°C
Dew
Point
Rel
Hum
%
Delta-T
°C
Wind Press
QNH
hPa
Press
MSL
hPa
Rain
since 9 am
mm
Dir
 
Spd
km/h
Gust
km/h
Spd
kts
Gust
kts
20/08:30am 14.1 9.8 6.9 62 3.5 ESE 19 26 10 14 1039.3 1039.2 0.0
20/08:00am 13.7 8.5 5.6 58 3.8 ESE 22 28 12 15 1039.0 1038.9 0.0
20/07:30am 13.5 7.7 6.1 61 3.5 ESE 26 37 14 20 1038.7 1038.6 0.0
20/07:00am 13.3 7.6 6.6 64 3.2 ESE 26 35 14 19 1038.4 1038.4 0.0
20/06:30am 13.2 7.5 6.5 64 3.2 ESE 26 33 14 18 1038.2 1038.2 0.0
20/06:00am 13.2 7.8 6.3 63 3.3 ESE 24 28 13 15 1038.1 1038.1 0.0
20/05:30am 13.0 8.0 6.6 65 3.0 ESE 22 28 12 15 1038.1 1038.1 0.0
20/05:00am 13.0 8.0 6.4 64 3.2 ESE 22 28 12 15 1037.9 1037.9 0.0
20/04:30am 13.0 8.0 6.6 65 3.0 ESE 22 30 12 16 1037.7 1037.7 0.0
20/04:00am 13.1 7.3 6.2 63 3.3 ESE 26 32 14 17 1037.5 1037.5 0.0
20/03:30am 12.9 6.8 6.7 66 2.9 SE 28 35 15 19 1037.4 1037.4 0.0
20/03:00am 12.9 7.4 5.8 62 3.3 SE 24 32 13 17 1037.4 1037.4 0.0
20/02:30am 13.0 6.9 6.6 65 3.0 SE 28 43 15 23 1037.7 1037.7 0.0
20/02:00am 13.2 7.2 3.6 52 4.3 SSE 24 32 13 17 1037.8 1037.8 0.0
20/01:30am 13.2 7.3 3.8 53 4.2 SE 24 32 13 17 1037.7 1037.7 0.0
20/01:00am 13.3 6.5 5.0 57 3.9 SE 30 37 16 20 1037.5 1037.5 0.0
20/12:30am 13.5 6.5 5.9 60 3.6 SE 32 43 17 23 1037.4 1037.4 0.0
20/12:00am 13.4 6.4 5.8 60 3.6 SE 32 39 17 21 1037.5 1037.5 0.0
 
Date/Time
CST
Temp
°C
App
Temp
°C
Dew
Point
Rel
Hum
%
Delta-T
°C
Wind Press
QNH
hPa
Press
MSL
hPa
Rain
since 9 am
mm
Dir
 
Spd
km/h
Gust
km/h
Spd
kts
Gust
kts
19/11:30pm 13.0 6.8 6.1 63 3.2 SE 28 37 15 20 1037.7 1037.7 0.0
19/11:00pm 13.0 5.9 6.6 65 3.1 SE 33 46 18 25 1037.7 1037.7 0.0
19/10:30pm 13.4 6.3 5.6 59 3.6 SSE 32 39 17 21 1037.7 1037.7 0.0
19/10:00pm 13.5 6.0 4.4 54 4.2 SE 33 39 18 21 1037.6 1037.6 0.0
19/09:30pm 13.3 6.0 5.5 59 3.6 SE 33 39 18 21 1037.5 1037.5 0.0
19/09:00pm 13.3 6.3 4.2 54 4.1 SSE 30 37 16 20 1037.5 1037.5 0.0
19/08:30pm 13.4 6.1 5.6 59 3.6 SSE 33 46 18 25 1036.6 1036.6 0.0
19/08:00pm 13.6 7.5 5.0 56 4.0 SSE 26 35 14 19 1036.5 1036.5 0.0
19/07:30pm 13.8 7.7 6.7 62 3.4 SSE 28 39 15 21 1036.2 1036.2 0.0
19/07:04pm 13.5 6.8 5.4 58 3.8 SSE 30 50 16 27 1036.1 1036.1 0.0
19/07:00pm 13.4 6.1 4.3 54 4.2 SSE 32 41 17 22 1036.1 1036.1 0.0
19/06:30pm 13.5 7.2 5.9 60 3.6 SSE 28 39 15 21 1035.6 1035.6 0.0
19/06:00pm 13.3 6.9 3.4 51 4.4 SSE 26 33 14 18 1035.5 1035.5 0.0
19/05:30pm 13.5 6.8 3.8 52 4.4 SSE 28 37 15 20 1035.1 1035.1 0.0
19/05:00pm 13.6 6.7 4.5 54 4.2 SSE 30 39 16 21 1034.9 1034.9 0.0
19/04:30pm 13.6 6.7 4.5 54 4.2 SSE 30 39 16 21 1034.6 1034.6 0.0
19/04:00pm 13.8 7.1 5.4 57 4.0 SSE 30 37 16 20 1034.8 1034.8 0.0
19/03:30pm 13.9 7.3 4.2 52 4.4 SSE 28 37 15 20 1034.6 1034.6 0.0
19/03:00pm 13.8 6.9 4.7 54 4.2 SSE 30 39 16 21 1034.1 1034.1 0.0
19/02:30pm 13.8 6.6 4.9 55 4.1 SSE 32 43 17 23 1034.0 1034.0 0.0
19/02:00pm 13.9 6.8 6.3 60 3.6 SSE 33 46 18 25 1034.0 1034.0 0.0
19/01:30pm 13.9 6.5 4.2 52 4.4 SSE 32 39 17 21 1033.7 1033.7 0.0
19/01:00pm 14.0 7.5 6.4 60 3.7 SSE 30 39 16 21 1033.8 1033.8 0.0
19/12:30pm 13.4 5.4 5.8 60 3.6 SSE 37 48 20 26 1033.8 1033.8 0.0
19/12:00pm 14.0 7.0 6.1 59 3.7 SSE 32 43 17 23 1034.1 1034.1 0.0
19/11:30am 13.4 5.6 4.8 56 3.9 SSE 35 46 19 25 1033.8 1033.8 0.0
19/11:00am 13.5 5.7 4.9 56 4.0 SSE 35 48 19 26 1033.7 1033.7 0.0
19/10:30am 13.6 5.8 3.1 49 4.6 SSE 33 44 18 24 1033.5 1033.5 0.0
19/10:00am 13.7 5.7 5.8 59 3.7 SSE 37 54 20 29 1033.1 1033.1 0.0
19/09:30am 13.6 5.1 5.3 57 3.9 SSE 39 52 21 28 1032.7 1032.7 0.0
19/09:00am 13.5 5.4 5.4 58 3.8 SSE 37 48 20 26 1032.5 1032.4 6.2
19/08:30am 13.0 4.3 4.2 55 4.0 SSE 39 50 21 27 1032.1 1032.0 6.2
19/08:00am 13.2 5.1 5.1 58 3.8 SSE 37 54 20 29 1031.4 1031.3 6.2
19/07:30am 13.0 4.6 5.7 61 3.4 SSE 39 57 21 31 1030.4 1030.3 6.2
19/07:28am 13.1 5.0 5.3 59 3.6 SSE 37 56 20 30 1030.4 1030.3 6.2
19/07:00am 13.0 5.1 6.1 63 3.3 SSE 37 52 20 28 1029.9 1029.8 6.2
19/06:30am 12.8 5.1 5.2 60 3.5 SSE 35 48 19 26 1029.3 1029.2 6.2
19/06:00am 12.7 3.4 5.1 60 3.5 S 43 56 23 30 1028.7 1028.6 6.2
19/05:32am 12.7 3.7 7.2 69 2.7 SSE 44 65 24 35 1028.2 1028.1 6.2
19/05:30am 12.4 2.4 6.0 65 3.0 SSE 48 65 26 35 1028.1 1028.0 6.2
19/05:00am 12.6 2.5 7.3 70 2.6 S 50 65 27 35 1027.3 1027.2 6.2
19/04:30am 13.2 3.6 4.4 55 4.0 S 44 57 24 31 1027.1 1027.0 6.2
19/04:00am 13.1 3.4 5.8 61 3.4 S 46 59 25 32 1026.8 1026.7 6.2
19/03:45am 12.2 2.9 5.8 65 3.0 S 44 63 24 34 1026.5 1026.4 6.2
19/03:30am 12.5 3.7 7.2 70 2.6 S 43 54 23 29 1026.6 1026.5 6.2
19/03:00am 13.1 4.4 6.0 62 3.3 S 41 52 22 28 1026.2 1026.1 6.2
19/02:30am 12.9 5.1 6.5 65 3.0 S 37 44 20 24 1026.4 1026.3 6.2
19/02:00am 13.4 4.2 5.6 59 3.7 S 43 56 23 30 1026.0 1025.9 6.2
19/01:30am 13.4 4.6 5.6 59 3.7 S 41 54 22 29 1025.7 1025.6 6.2
19/01:00am 13.5 4.2 5.7 59 3.7 S 44 57 24 31 1025.3 1025.2 6.2
19/12:30am 13.8 5.6 4.7 54 4.2 S 37 52 20 28 1025.2 1025.1 6.2
19/12:04am 13.7 6.2 6.1 60 3.6 S 35 56 19 30 1025.2 1025.1 6.2
19/12:00am 13.7 5.3 5.8 59 3.7 S 39 56 21 30 1025.2 1025.1 6.2
 
Date/Time
CST
Temp
°C
App
Temp
°C
Dew
Point
Rel
Hum
%
Delta-T
°C
Wind Press
QNH
hPa
Press
MSL
hPa
Rain
since 9 am
mm
Dir
 
Spd
km/h
Gust
km/h
Spd
kts
Gust
kts
18/11:30pm 13.7 5.9 6.6 62 3.4 S 37 52 20 28 1024.6 1024.5 6.2
18/11:00pm 13.8 5.6 4.9 55 4.1 S 37 48 20 26 1024.4 1024.3 6.2
18/10:30pm 13.8 6.3 6.4 61 3.5 S 35 48 19 26 1024.3 1024.2 6.2
18/10:00pm 13.7 6.9 7.0 64 3.3 SSW 32 48 17 26 1024.1 1024.0 6.2
18/09:35pm 13.2 4.1 6.1 62 3.4 S 43 61 23 33 1023.5 1023.4 6.2
18/09:30pm 13.5 4.2 5.9 60 3.6 S 44 63 24 34 1023.3 1023.2 6.2
18/09:20pm 13.7 5.9 8.1 69 2.8 S 39 61 21 33 1023.1 1023.0 6.2
18/09:00pm 13.8 5.1 7.6 66 3.0 S 43 61 23 33 1022.6 1022.5 6.2
18/08:55pm 14.0 6.5 8.0 67 3.0 S 37 59 20 32 1022.5 1022.4 6.2
18/08:30pm 13.8 6.3 6.4 61 3.5 SSW 35 48 19 26 1022.5 1022.4 6.2
18/08:00pm 12.4 7.4 9.4 82 1.5 SW 26 33 14 18 1022.4 1022.3 6.0
18/07:33pm 13.6 6.5 9.5 76 2.1 SSW 37 57 20 31 1021.7 1021.6 6.0
18/07:30pm 13.6 5.4 8.2 70 2.7 S 41 57 22 31 1021.6 1021.5 6.0
18/07:08pm 14.0 7.5 8.0 67 3.0 S 32 52 17 28 1021.3 1021.2 6.0
18/07:00pm 14.0 6.2 8.2 68 2.9 SSW 39 56 21 30 1020.8 1020.7 6.0
18/06:30pm 14.2 7.1 8.2 67 3.0 S 35 54 19 29 1019.7 1019.7 6.0
18/06:01pm 14.4 7.7 7.5 63 3.4 S 32 52 17 28 1019.2 1019.2 6.0
18/06:00pm 14.6 8.1 8.3 66 3.2 S 32 44 17 24 1019.2 1019.2 6.0
18/05:31pm 14.5 8.0 8.9 69 2.9 SSW 33 52 18 28 1018.7 1018.7 6.0
18/05:30pm 14.3 7.2 8.0 66 3.1 SSW 35 52 19 28 1018.7 1018.7 6.0
18/05:00pm 14.4 5.8 9.0 70 2.8 SSW 44 57 24 31 1018.4 1018.4 6.0
18/04:44pm 14.6 8.0 10.0 74 2.4 SSW 35 56 19 30 1018.0 1018.0 6.0
18/04:30pm 14.0 7.2 9.2 73 2.4 SW 35 48 19 26 1017.6 1017.6 6.0
18/04:00pm 13.3 7.1 10.1 81 1.7 SW 33 41 18 22 1017.6 1017.6 6.0
18/03:30pm 12.6 4.3 11.3 92 0.7 SSW 46 57 25 31 1017.1 1017.0 6.0
18/03:00pm 12.9 6.0 11.5 91 0.7 SW 39 48 21 26 1016.8 1016.7 5.6
18/02:30pm 12.8 4.5 11.4 91 0.7 SW 46 59 25 32 1016.4 1016.3 5.6
18/02:00pm 13.1 4.4 12.5 96 0.3 SSW 50 61 27 33 1016.1 1016.0 5.6
18/01:51pm 13.4 6.5 12.8 96 0.3 SSW 41 61 22 33 1016.0 1015.9 5.2
18/01:30pm 13.7 7.6 13.1 96 0.3 SSW 37 52 20 28 1016.0 1015.9 4.2
18/01:00pm 14.8 7.8 13.8 94 0.6 SSW 43 54 23 29 1015.5 1015.4 3.4
18/12:33pm 15.3 10.2 13.7 90 0.9 W 33 56 18 30 1015.3 1015.2 3.2
18/12:30pm 16.4 11.5 13.7 84 1.5 WNW 32 56 17 30 1015.5 1015.4 1.8
18/12:29pm 17.4 13.1 14.5 83 1.7 WNW 30 56 16 30 1015.4 1015.3 1.2
18/12:00pm 18.1 12.8 14.2 78 2.2 NW 35 50 19 27 1015.0 1014.9 0.0
18/11:30am 18.6 14.1 13.7 73 2.8 NW 30 43 16 23 1015.5 1015.4 0.0
18/11:00am 17.8 12.5 14.3 80 2.0 NW 35 52 19 28 1015.8 1015.7 0.0
18/10:30am 17.5 12.8 14.4 82 1.8 NW 32 43 17 23 1015.8 1015.7 0.0
18/10:00am 16.7 12.1 14.5 87 1.3 NW 32 44 17 24 1015.9 1015.8 0.0
18/09:30am 16.6 12.3 14.4 87 1.3 NW 30 39 16 21 1016.3 1016.2 0.0
18/09:00am 15.4 12.1 13.9 91 0.8 NW 24 30 13 16 1016.4 1016.3 0.6
18/08:30am 15.5 12.5 13.7 89 1.0 NW 22 32 12 17 1016.3 1016.2 0.6
18/08:00am 15.0 10.8 13.4 90 0.9 NW 28 37 15 20 1016.0 1015.9 0.6
18/07:30am 14.3 10.2 12.7 90 0.9 NW 26 33 14 18 1015.7 1015.6 0.6
18/07:00am 14.4 11.3 11.6 83 1.5 NW 19 26 10 14 1015.5 1015.4 0.6
18/06:30am 13.9 10.1 11.1 83 1.5 NW 22 26 12 14 1015.4 1015.3 0.6
18/06:00am 12.7 8.6 10.2 85 1.3 NW 22 26 12 14 1015.4 1015.3 0.6
18/05:30am 12.7 8.2 10.2 85 1.3 NW 24 28 13 15 1015.4 1015.3 0.6
18/05:00am 12.3 7.4 9.9 85 1.2 NW 26 32 14 17 1015.2 1015.1 0.6
18/04:30am 11.8 7.2 9.5 86 1.2 NW 24 28 13 15 1015.0 1014.9 0.6
18/04:00am 11.2 6.5 9.3 88 1.0 NW 24 28 13 15 1015.0 1014.9 0.6
18/03:30am 10.9 7.1 9.2 89 0.8 NW 19 20 10 11 1015.1 1015.0 0.6
18/03:00am 11.2 7.5 9.5 89 0.9 NW 19 24 10 13 1015.4 1015.3 0.6
18/02:30am 11.7 8.2 10.1 90 0.8 WNW 19 22 10 12 1015.6 1015.5 0.6
18/02:00am 12.5 10.7 10.7 89 0.9 WNW 11 15 6 8 1015.9 1015.8 0.6
18/01:30am 13.1 10.7 11.5 90 0.8 WNW 15 20 8 11 1016.0 1015.9 0.6
18/01:00am 13.4 11.6 12.1 92 0.7 WNW 13 17 7 9 1016.2 1016.1 0.6
18/12:30am 13.5 11.7 12.2 92 0.7 W 13 15 7 8 1016.3 1016.2 0.6
18/12:00am 13.6 11.9 12.3 92 0.7 W 13 19 7 10 1016.6 1016.5 0.6
 
Date/Time
CST
Temp
°C
App
Temp
°C
Dew
Point
Rel
Hum
%
Delta-T
°C
Wind Press
QNH
hPa
Press
MSL
hPa
Rain
since 9 am
mm
Dir
 
Spd
km/h
Gust
km/h
Spd
kts
Gust
kts
17/11:30pm 13.6 11.8 12.2 91 0.8 WSW 13 17 7 9 1016.9 1016.8 0.6
17/11:00pm 13.8 12.0 12.2 90 0.9 WSW 13 17 7 9 1017.1 1017.0 0.6
17/10:30pm 14.1 12.0 12.3 89 1.0 WSW 15 19 8 10 1017.6 1017.6 0.6
17/10:00pm 14.2 12.6 11.5 84 1.4 WSW 11 15 6 8 1017.7 1017.7 0.6
17/09:30pm 14.4 12.8 11.6 83 1.5 SSW 11 15 6 8 1017.5 1017.5 0.6
17/09:00pm 14.4 12.7 11.2 81 1.7 SSW 11 17 6 9 1017.5 1017.5 0.6
17/08:30pm 14.4 13.2 11.7 84 1.5 SSW 9 13 5 7 1017.4 1017.4 0.6
17/08:00pm 14.4 12.8 11.7 84 1.5 S 11 15 6 8 1017.3 1017.2 0.6
17/07:30pm 14.2 12.3 11.7 85 1.3 S 13 17 7 9 1017.2 1017.1 0.6
17/07:00pm 14.2 13.1 11.9 86 1.2 S 9 13 5 7 1017.0 1016.9 0.6
17/06:30pm 14.2 12.8 12.2 88 1.1 S 11 15 6 8 1017.0 1016.9 0.6
17/06:00pm 14.0 12.6 12.2 89 1.0 S 11 15 6 8 1016.9 1016.8 0.6
17/05:30pm 13.8 12.0 12.2 90 0.9 SSE 13 20 7 11 1016.7 1016.6 0.6
17/05:00pm 13.6 11.4 12.2 91 0.8 SSE 15 22 8 12 1016.6 1016.5 0.4
17/04:30pm 13.6 11.9 12.3 92 0.7 SSE 13 19 7 10 1016.7 1016.6 0.4
17/04:00pm 13.6 12.2 12.3 92 0.7 SSE 11 17 6 9 1016.7 1016.6 0.4
17/03:30pm 13.4 12.3 12.1 92 0.7 SE 9 13 5 7 1016.6 1016.5 0.4
17/03:00pm 13.5 11.7 12.2 92 0.7 ENE 13 17 7 9 1016.7 1016.6 0.4
17/02:30pm 13.3 10.3 12.0 92 0.7 NE 19 24 10 13 1017.1 1017.0 0.4
17/02:00pm 13.2 10.2 11.8 91 0.7 ENE 19 24 10 13 1017.3 1017.2 0.4
17/01:30pm 13.6 10.7 12.3 92 0.7 E 19 22 10 12 1017.8 1017.8 0.4
17/01:00pm 13.6 10.3 11.5 87 1.1 E 20 24 11 13 1018.3 1018.3 0.4
17/12:30pm 13.7 10.3 11.4 86 1.2 ESE 20 26 11 14 1019.0 1019.0 0.4
17/12:00pm 13.4 10.2 11.8 90 0.9 ESE 20 26 11 14 1019.7 1019.7 0.4
17/11:30am 13.5 9.0 11.4 87 1.1 ESE 26 32 14 17 1020.3 1020.2 0.4
17/11:00am 13.6 8.8 11.7 88 1.0 ESE 28 33 15 18 1020.7 1020.6 0.4
17/10:30am 13.8 8.7 12.0 89 1.0 ESE 30 35 16 19 1021.0 1020.9 0.2
17/10:00am 13.7 8.3 10.9 83 1.5 ESE 30 35 16 19 1021.4 1021.3 0.2
17/09:30am 14.6 9.0 11.6 82 1.6 ESE 32 37 17 20 1021.6 1021.5 0.0
17/09:00am 14.7 8.9 11.5 81 1.7 SE 33 39 18 21 1021.6 1021.5 0.8

Other Formats:

Comma delimited format used in spreadsheet applications
http://www.bom.gov.au/fwo/IDS60801/IDS60801.94822.axf

JavaScript Object Notation format (JSON) in row-major order
http://www.bom.gov.au/fwo/IDS60801/IDS60801.94822.json